Time;durP1;ratioP1;P1;durP2;ratioP2;P2;SDS_P1;SDS_P2;PMS_P1;PMS_P2;Temp;Humidity;BMP_temperature;BMP_pressure;BME280_temperature;BME280_humidity;BME280_pressure;Samples;Min_cycle;Max_cycle;Signal;HPM_P1;HPM_P2
2021/09/02 00:02:09;;;;;;;0.70;0.70;;;;;;;10.44;100.00;-20966.16;6278169;22;20373;-72
2021/09/02 00:04:36;;;;;;;0.70;0.60;;;;;;;10.43;100.00;-20965.75;6278444;22;20391;-72
2021/09/02 00:07:04;;;;;;;0.70;0.70;;;;;;;10.45;100.00;-20966.44;6277834;22;20746;-72
2021/09/02 00:09:31;;;;;;;0.70;0.60;;;;;;;10.53;100.00;-20968.66;6250465;22;20433;-71
2021/09/02 00:11:58;;;;;;;0.70;0.67;;;;;;;10.61;100.00;-20970.88;6277372;22;20390;-72
2021/09/02 00:14:26;;;;;;;0.70;0.50;;;;;;;10.75;100.00;-20974.47;6278869;22;20900;-71
2021/09/02 00:16:53;;;;;;;0.70;0.70;;;;;;;10.80;100.00;-20975.97;6278402;22;20477;-71
2021/09/02 00:19:23;;;;;;;0.70;0.70;;;;;;;10.88;100.00;-20978.06;6277769;22;20460;-72
2021/09/02 00:21:50;;;;;;;1.27;1.17;;;;;;;10.91;100.00;-20978.88;6278285;22;20422;-70
2021/09/02 00:24:18;;;;;;;0.80;0.73;;;;;;;11.01;100.00;-20981.66;6250946;22;20448;-72
2021/09/02 00:26:46;;;;;;;0.80;0.80;;;;;;;11.07;100.00;-20983.31;6277458;22;20396;-71
2021/09/02 00:29:13;;;;;;;0.70;0.70;;;;;;;11.22;100.00;-20987.19;6278173;22;20461;-72
2021/09/02 00:31:41;;;;;;;3.03;2.83;;;;;;;11.40;100.00;-20992.03;6251091;22;20759;-71
2021/09/02 00:34:08;;;;;;;1.33;1.23;;;;;;;11.51;100.00;-20995.19;6278449;22;20427;-72
2021/09/02 00:36:35;;;;;;;0.70;0.60;;;;;;;11.65;100.00;-20998.78;6278531;22;20468;-71
2021/09/02 00:39:03;;;;;;;1.00;1.00;;;;;;;11.80;100.00;-21002.94;6277776;22;20410;-72
2021/09/02 00:41:30;;;;;;;0.70;0.70;;;;;;;11.87;100.00;-21004.75;6278148;22;20683;-71
2021/09/02 00:43:57;;;;;;;0.70;0.60;;;;;;;11.94;100.00;-21006.81;6277293;22;20419;-71
2021/09/02 00:46:24;;;;;;;0.70;0.70;;;;;;;11.99;100.00;-21008.19;6277780;22;20383;-71
2021/09/02 00:48:54;;;;;;;0.83;0.83;;;;;;;12.09;100.00;-21010.94;6251302;22;20841;-72
2021/09/02 00:51:22;;;;;;;0.70;0.70;;;;;;;12.14;100.00;-21012.06;6278182;22;20721;-71
2021/09/02 00:53:51;;;;;;;0.70;0.70;;;;;;;12.20;100.00;-21013.84;6251099;22;20429;-72
2021/09/02 00:56:19;;;;;;;0.70;0.70;;;;;;;12.28;100.00;-21016.06;6277026;22;20426;-71
2021/09/02 00:58:47;;;;;;;0.70;0.70;;;;;;;12.32;100.00;-21017.03;6250627;22;20392;-71
2021/09/02 01:01:16;;;;;;;0.97;0.97;;;;;;;12.32;100.00;-21017.16;6251248;22;20458;-72
2021/09/02 01:03:44;;;;;;;0.70;0.67;;;;;;;12.40;100.00;-21019.22;6225282;22;20458;-71
2021/09/02 01:06:13;;;;;;;0.70;0.70;;;;;;;12.45;100.00;-21020.47;6250026;22;20410;-72
2021/09/02 01:08:41;;;;;;;1.10;1.00;;;;;;;12.50;100.00;-21022.00;6250691;22;20443;-71
2021/09/02 01:11:08;;;;;;;1.50;1.40;;;;;;;12.48;100.00;-21021.31;6250983;22;20839;-71
2021/09/02 01:13:35;;;;;;;0.70;0.70;;;;;;;12.49;100.00;-21021.72;6277629;22;20394;-71
2021/09/02 01:16:02;;;;;;;0.80;0.80;;;;;;;12.47;100.00;-21021.16;6249858;22;20439;-71
2021/09/02 01:18:30;;;;;;;0.70;0.70;;;;;;;12.46;100.00;-21020.75;6277663;22;20375;-72
2021/09/02 01:20:57;;;;;;;0.70;0.60;;;;;;;12.47;100.00;-21021.16;6277459;22;20877;-71
2021/09/02 01:23:26;;;;;;;1.10;1.00;;;;;;;12.46;100.00;-21020.88;6278080;22;20410;-72
2021/09/02 01:25:53;;;;;;;0.70;0.67;;;;;;;12.48;100.00;-21021.44;6276335;22;20421;-71
2021/09/02 01:28:20;;;;;;;0.70;0.60;;;;;;;12.50;100.00;-21022.00;6277032;22;20700;-72
2021/09/02 01:30:47;;;;;;;0.70;0.70;;;;;;;12.50;100.00;-21022.00;6277560;22;20397;-72
2021/09/02 01:33:16;;;;;;;0.70;0.70;;;;;;;12.53;100.00;-21022.81;6276040;22;20394;-71
2021/09/02 01:35:46;;;;;;;1.30;1.20;;;;;;;12.56;100.00;-21023.66;6276417;22;20374;-72
2021/09/02 01:38:13;;;;;;;0.70;0.70;;;;;;;12.54;100.00;-21023.09;6277057;22;20414;-72
2021/09/02 01:40:44;;;;;;;0.73;0.73;;;;;;;12.54;100.00;-21023.09;6250412;22;20426;-71
2021/09/02 01:43:14;;;;;;;0.80;0.77;;;;;;;12.61;100.00;-21024.88;6250136;22;20368;-71
2021/09/02 01:45:41;;;;;;;0.70;0.60;;;;;;;12.67;100.00;-21026.53;6224546;22;20775;-71
2021/09/02 01:48:08;;;;;;;1.10;1.00;;;;;;;12.71;100.00;-21027.50;6224861;22;20467;-72
2021/09/02 01:50:40;;;;;;;0.70;0.63;;;;;;;12.73;100.00;-21028.06;6277349;22;20440;-71
2021/09/02 01:53:10;;;;;;;0.70;0.60;;;;;;;12.75;100.00;-21028.75;6225265;22;20417;-72
2021/09/02 01:55:38;;;;;;;0.80;0.70;;;;;;;12.79;100.00;-21029.84;6224544;22;20444;-71
2021/09/02 01:58:06;;;;;;;0.70;0.70;;;;;;;12.81;100.00;-21030.28;6249378;22;20384;-71
2021/09/02 02:00:35;;;;;;;1.47;1.37;;;;;;;12.84;100.00;-21030.97;6277911;22;20450;-70
2021/09/02 02:03:03;;;;;;;2.23;2.13;;;;;;;12.87;100.00;-21031.94;6276903;22;20478;-71
2021/09/02 02:05:30;;;;;;;0.70;0.70;;;;;;;12.93;100.00;-21033.44;6250631;22;20462;-70
2021/09/02 02:07:58;;;;;;;0.70;0.60;;;;;;;12.97;100.00;-21034.69;6250561;22;20872;-72
2021/09/02 02:10:30;;;;;;;0.70;0.70;;;;;;;13.01;100.00;-21035.78;6277040;22;20396;-71
2021/09/02 02:13:00;;;;;;;0.70;0.60;;;;;;;13.03;100.00;-21036.34;6275518;22;20397;-71
2021/09/02 02:15:29;;;;;;;0.70;0.67;;;;;;;13.07;100.00;-21037.31;6276256;22;20384;-71
2021/09/02 02:17:56;;;;;;;0.70;0.70;;;;;;;13.11;100.00;-21038.28;6248614;22;20990;-71
2021/09/02 02:20:24;;;;;;;0.70;0.70;;;;;;;13.14;100.00;-21039.22;6276678;22;20476;-73
2021/09/02 02:22:50;;;;;;;0.70;0.70;;;;;;;13.17;100.00;-21039.94;6249635;22;21014;-72
2021/09/02 02:25:18;;;;;;;0.70;0.63;;;;;;;13.18;100.00;-21040.19;6276800;22;20390;-72
2021/09/02 02:27:45;;;;;;;0.70;0.70;;;;;;;13.20;100.00;-21040.75;6249550;22;20437;-70
2021/09/02 02:30:15;;;;;;;0.70;0.70;;;;;;;13.16;100.00;-21012.75;6276589;22;20918;-71
2021/09/02 02:32:44;;;;;;;0.70;0.70;;;;;;;13.17;100.00;-20962.59;6275873;22;20379;-72
2021/09/02 02:35:13;;;;;;;0.70;0.70;;;;;;;13.14;100.00;-20941.66;6277160;22;20383;-72
2021/09/02 02:37:40;;;;;;;0.70;0.70;;;;;;;13.13;100.00;-20901.16;6249781;22;20504;-70
2021/09/02 02:40:10;;;;;;;0.73;0.70;;;;;;;13.06;100.00;-20854.25;6276701;22;20514;-71
2021/09/02 02:42:38;;;;;;;0.80;0.80;;;;;;;12.99;100.00;-20817.13;6276464;22;20398;-71
2021/09/02 02:45:06;;;;;;;0.70;0.70;;;;;;;12.99;100.00;-20756.78;6250774;22;20375;-71
2021/09/02 02:47:34;;;;;;;0.80;0.80;;;;;;;12.99;100.00;-20706.50;6250087;22;20395;-72
2021/09/02 02:50:02;;;;;;;0.70;0.70;;;;;;;13.01;100.00;-20681.91;6276579;22;20375;-72
2021/09/02 02:52:29;;;;;;;0.70;0.60;;;;;;;13.00;100.00;-20653.84;6275828;22;20495;-72
2021/09/02 02:54:56;;;;;;;0.80;0.70;;;;;;;12.99;100.00;-20625.91;6276666;22;20422;-72
2021/09/02 02:57:24;;;;;;;0.70;0.60;;;;;;;13.00;100.00;-20621.28;6276348;22;20572;-70
2021/09/02 02:59:51;;;;;;;1.10;1.00;;;;;;;12.98;100.00;-20610.69;6276411;22;20438;-71
2021/09/02 03:02:18;;;;;;;0.70;0.60;;;;;;;12.98;100.00;-20598.13;6277046;22;20392;-71
2021/09/02 03:04:44;;;;;;;2.60;2.40;;;;;;;12.98;100.00;-20580.53;6277047;22;20396;-71
2021/09/02 03:07:13;;;;;;;0.70;0.60;;;;;;;12.99;100.00;-20550.63;6276284;22;20387;-71
2021/09/02 03:09:40;;;;;;;0.70;0.70;;;;;;;12.97;100.00;-20529.97;6276073;22;20493;-70
2021/09/02 03:12:07;;;;;;;0.70;0.70;;;;;;;12.96;100.00;-20519.66;6223720;22;20407;-70
2021/09/02 03:14:34;;;;;;;0.80;0.70;;;;;;;12.94;100.00;-20491.31;6276198;22;20365;-71
2021/09/02 03:17:01;;;;;;;0.70;0.70;;;;;;;12.95;100.00;-20443.94;6276462;22;20423;-71
2021/09/02 03:19:27;;;;;;;0.70;0.70;;;;;;;12.88;100.00;-20447.13;6276194;22;20364;-70
2021/09/02 03:21:54;;;;;;;0.70;0.70;;;;;;;12.88;100.00;-20431.91;6276400;22;20389;-72
2021/09/02 03:24:22;;;;;;;0.70;0.70;;;;;;;12.84;100.00;-20481.25;6275832;22;20406;-71
2021/09/02 03:26:50;;;;;;;0.70;0.70;;;;;;;12.87;100.00;-20446.84;6275698;22;20416;-72
2021/09/02 03:29:17;;;;;;;0.70;0.70;;;;;;;12.90;100.00;-20389.69;6274846;22;20375;-71
2021/09/02 03:31:44;;;;;;;0.80;0.80;;;;;;;12.86;100.00;-20376.19;6279543;22;20423;-71
2021/09/02 03:34:10;;;;;;;0.70;0.70;;;;;;;12.78;100.00;-20356.59;6280196;22;20698;-71
2021/09/02 03:36:37;;;;;;;0.70;0.60;;;;;;;12.73;100.00;-20372.75;6251078;22;20433;-71
2021/09/02 03:39:04;;;;;;;0.70;0.70;;;;;;;12.63;100.00;-20415.47;6250959;22;20406;-71
2021/09/02 03:41:32;;;;;;;0.70;0.70;;;;;;;12.60;100.00;-20374.31;6277083;22;20372;-71
2021/09/02 03:44:00;;;;;;;0.70;0.70;;;;;;;12.60;100.00;-20276.44;6249684;22;20415;-70
2021/09/02 03:46:26;;;;;;;0.70;0.70;;;;;;;12.57;100.00;-20192.72;6278240;22;20371;-72
2021/09/02 03:48:53;;;;;;;1.20;1.10;;;;;;;12.55;100.00;-20089.31;6277799;22;20855;-72
2021/09/02 03:51:20;;;;;;;0.80;0.70;;;;;;;12.75;100.00;-19762.41;6278267;22;20378;-72
2021/09/02 03:53:47;;;;;;;0.70;0.70;;;;;;;12.74;100.00;-19631.44;6277741;22;20407;-71
2021/09/02 03:56:14;;;;;;;0.70;0.70;;;;;;;12.69;100.00;-19341.19;6277524;22;20390;-71
2021/09/02 03:58:42;;;;;;;0.70;0.60;;;;;;;12.63;100.00;-19515.53;6277545;22;20426;-71
2021/09/02 04:01:09;;;;;;;0.70;0.60;;;;;;;12.41;100.00;-19572.94;6277662;22;20442;-71
2021/09/02 04:03:36;;;;;;;0.70;0.60;;;;;;;12.48;100.00;-19386.22;6278002;22;20447;-71
2021/09/02 04:06:04;;;;;;;0.80;0.80;;;;;;;12.38;100.00;-19328.47;6248961;22;20742;-71
2021/09/02 04:08:30;;;;;;;0.70;0.70;;;;;;;12.40;100.00;-19293.91;6275708;22;20409;-72
2021/09/02 04:10:57;;;;;;;0.80;0.80;;;;;;;12.18;100.00;-19396.47;6276881;22;20377;-71
2021/09/02 04:13:24;;;;;;;1.00;1.00;;;;;;;12.12;100.00;-19543.16;6276096;22;20933;-72
2021/09/02 04:15:52;;;;;;;0.70;0.60;;;;;;;12.13;100.00;-19397.72;6276835;22;20411;-72
2021/09/02 04:18:20;;;;;;;0.70;0.70;;;;;;;11.95;100.00;-19533.97;6276378;22;20454;-71
2021/09/02 04:20:47;;;;;;;0.70;0.60;;;;;;;11.81;100.00;-19686.19;6277810;22;20382;-70
2021/09/02 04:23:14;;;;;;;0.70;0.70;;;;;;;11.68;100.00;-19768.34;6277138;22;20492;-72
2021/09/02 04:25:41;;;;;;;0.70;0.70;;;;;;;11.59;100.00;-19901.66;6250715;22;20444;-71
2021/09/02 04:28:08;;;;;;;0.90;0.90;;;;;;;11.50;100.00;-19992.19;6277134;22;20415;-72
2021/09/02 04:30:34;;;;;;;0.70;0.70;;;;;;;11.41;100.00;-20067.59;6278009;22;20490;-71
2021/09/02 04:33:03;;;;;;;0.70;0.70;;;;;;;11.29;100.00;-20177.31;6277197;22;20448;-71
2021/09/02 04:35:30;;;;;;;0.70;0.70;;;;;;;11.23;100.00;-20250.97;6251355;22;20431;-72
2021/09/02 04:37:57;;;;;;;0.70;0.60;;;;;;;11.18;100.00;-20282.22;6277045;22;20433;-72
2021/09/02 04:40:24;;;;;;;0.70;0.60;;;;;;;11.18;100.00;-20354.94;6277066;22;20419;-71
2021/09/02 04:42:51;;;;;;;0.80;0.80;;;;;;;11.10;100.00;-20285.25;6276361;22;20378;-71
2021/09/02 04:45:18;;;;;;;0.70;0.63;;;;;;;11.03;100.00;-20308.59;6225341;22;20401;-71
2021/09/02 04:47:45;;;;;;;0.70;0.60;;;;;;;10.96;100.00;-20369.28;6277777;22;20370;-71
2021/09/02 04:50:14;;;;;;;0.93;0.93;;;;;;;11.01;100.00;-20373.25;6277427;22;20390;-70
2021/09/02 04:52:41;;;;;;;0.77;0.77;;;;;;;10.97;100.00;-20402.25;6278265;22;20777;-71
2021/09/02 04:55:10;;;;;;;0.70;0.70;;;;;;;11.01;100.00;-20493.41;6277328;22;20477;-71
2021/09/02 04:57:38;;;;;;;2.30;2.00;;;;;;;10.97;100.00;-20544.97;6277695;22;20464;-71
2021/09/02 05:00:06;;;;;;;0.70;0.60;;;;;;;10.96;100.00;-20584.81;6277544;22;20410;-71
2021/09/02 05:02:33;;;;;;;0.70;0.60;;;;;;;10.93;100.00;-20586.63;6277214;22;20391;-70
2021/09/02 05:05:00;;;;;;;0.80;0.77;;;;;;;10.89;100.00;-20613.25;6251240;22;20858;-72
2021/09/02 05:07:32;;;;;;;0.80;0.70;;;;;;;10.87;100.00;-20670.22;6277906;22;20411;-72
2021/09/02 05:09:59;;;;;;;0.70;0.60;;;;;;;10.88;100.00;-20650.44;6277757;22;20399;-71
2021/09/02 05:12:25;;;;;;;0.70;0.70;;;;;;;10.86;100.00;-20677.59;6249748;22;20406;-71
2021/09/02 05:14:52;;;;;;;0.70;0.70;;;;;;;10.86;100.00;-20727.72;6278045;22;20394;-72
2021/09/02 05:17:19;;;;;;;0.80;0.80;;;;;;;10.85;100.00;-20744.84;6277471;22;20419;-71
2021/09/02 05:19:46;;;;;;;0.70;0.67;;;;;;;10.84;100.00;-20769.63;6277487;22;20404;-72
2021/09/02 05:22:13;;;;;;;0.70;0.70;;;;;;;10.84;100.00;-20824.75;6275578;22;20394;-71
2021/09/02 05:24:41;;;;;;;0.70;0.60;;;;;;;10.86;100.00;-20857.88;6249275;22;20787;-70
2021/09/02 05:27:08;;;;;;;0.70;0.63;;;;;;;11.01;100.00;-20846.94;6249217;22;20383;-71
2021/09/02 05:29:35;;;;;;;0.70;0.70;;;;;;;11.20;100.00;-20849.53;6277091;22;20442;-71
2021/09/02 05:32:03;;;;;;;0.70;0.63;;;;;;;11.41;100.00;-20885.09;6276776;22;20887;-71
2021/09/02 05:34:30;;;;;;;0.70;0.70;;;;;;;11.59;100.00;-20905.09;6276955;22;20370;-71
2021/09/02 05:36:57;;;;;;;0.70;0.70;;;;;;;11.75;100.00;-20911.84;6249405;22;20398;-71
2021/09/02 05:39:25;;;;;;;0.80;0.70;;;;;;;11.88;100.00;-20902.75;6276605;22;20408;-70
2021/09/02 05:41:54;;;;;;;0.73;0.70;;;;;;;11.98;100.00;-20935.75;6276766;22;20398;-72
2021/09/02 05:44:20;;;;;;;0.70;0.67;;;;;;;12.16;100.00;-20912.94;6276223;22;20438;-71
2021/09/02 05:46:47;;;;;;;0.70;0.70;;;;;;;12.33;100.00;-20849.66;6277328;22;20444;-72
2021/09/02 05:49:14;;;;;;;0.70;0.70;;;;;;;12.48;100.00;-20813.56;6277295;22;20396;-71
2021/09/02 05:51:41;;;;;;;0.80;0.73;;;;;;;12.55;100.00;-20787.84;6276640;22;20904;-71
2021/09/02 05:54:08;;;;;;;0.80;0.80;;;;;;;12.56;100.00;-20740.38;6249093;22;20970;-70
2021/09/02 05:56:35;;;;;;;0.70;0.70;;;;;;;12.66;100.00;-20607.25;6277141;22;20392;-71
2021/09/02 05:59:03;;;;;;;0.70;0.70;;;;;;;12.75;100.00;-20549.22;6276459;22;20417;-71
2021/09/02 06:01:31;;;;;;;0.80;0.80;;;;;;;12.85;100.00;-20456.22;6249970;22;20473;-71
2021/09/02 06:03:58;;;;;;;0.70;0.70;;;;;;;13.05;100.00;-20335.97;6276486;22;20395;-72
2021/09/02 06:06:25;;;;;;;0.70;0.63;;;;;;;13.29;100.00;-20196.13;6276827;22;20842;-72
2021/09/02 06:08:52;;;;;;;0.70;0.70;;;;;;;13.55;100.00;-19956.13;6276091;22;20436;-71
2021/09/02 06:11:22;;;;;;;0.70;0.60;;;;;;;13.69;100.00;-19652.44;6250227;22;20371;-73
2021/09/02 06:13:50;;;;;;;0.70;0.70;;;;;;;13.60;100.00;-19539.53;6249246;22;20390;-71
2021/09/02 06:16:18;;;;;;;0.70;0.60;;;;;;;13.59;100.00;-19252.13;6276875;22;20410;-70
2021/09/02 06:18:45;;;;;;;0.80;0.80;;;;;;;13.57;100.00;-18979.72;6276524;22;20426;-70
2021/09/02 06:21:12;;;;;;;0.70;0.67;;;;;;;13.67;100.00;-18654.72;6276823;22;20390;-70
2021/09/02 06:23:39;;;;;;;0.83;0.77;;;;;;;13.67;100.00;-18314.81;6276507;22;20406;-70
2021/09/02 06:26:06;;;;;;;0.70;0.60;;;;;;;13.66;100.00;-17997.09;6275691;22;20441;-70
2021/09/02 06:28:33;;;;;;;0.70;0.60;;;;;;;13.63;100.00;-17757.09;6276247;22;20383;-71
2021/09/02 06:31:00;;;;;;;0.70;0.63;;;;;;;13.66;100.00;-17405.06;6277188;22;20367;-71
2021/09/02 06:33:28;;;;;;;0.80;0.80;;;;;;;13.76;100.00;-17069.53;6276488;22;20482;-72
2021/09/02 06:35:56;;;;;;;0.90;0.90;;;;;;;13.93;100.00;-16662.19;6276894;22;20911;-71
2021/09/02 06:38:23;;;;;;;0.70;0.60;;;;;;;14.05;100.00;-16177.69;6249386;22;20445;-72
2021/09/02 06:40:49;;;;;;;0.70;0.70;;;;;;;14.14;100.00;-15672.50;6276941;22;20387;-72
2021/09/02 06:43:18;;;;;;;0.70;0.60;;;;;;;14.32;100.00;-14936.22;6276011;22;20477;-71
2021/09/02 06:45:45;;;;;;;0.70;0.70;;;;;;;14.38;100.00;-14301.16;6223035;22;20415;-71
2021/09/02 06:48:12;;;;;;;0.70;0.70;;;;;;;14.45;100.00;-13716.44;6275047;22;20400;-71
2021/09/02 06:50:40;;;;;;;0.70;0.60;;;;;;;14.52;100.00;-13121.22;6275840;22;20946;-70
2021/09/02 06:53:07;;;;;;;0.70;0.67;;;;;;;14.61;100.00;-12293.66;6275758;22;20431;-72
2021/09/02 06:55:34;;;;;;;0.73;0.73;;;;;;;14.66;100.00;-11495.53;6249143;22;20725;-71
2021/09/02 06:58:01;;;;;;;0.70;0.70;;;;;;;14.91;100.00;-10395.59;6275874;22;20825;-71
2021/09/02 07:00:28;;;;;;;0.70;0.70;;;;;;;14.88;100.00;-9497.00;6248083;22;20491;-71
2021/09/02 07:02:55;;;;;;;0.70;0.70;;;;;;;15.03;100.00;-8336.22;6249520;22;20398;-71
2021/09/02 07:05:23;;;;;;;0.70;0.70;;;;;;;15.13;100.00;-7222.41;6276822;22;20394;-71
2021/09/02 07:07:53;;;;;;;0.80;0.80;;;;;;;15.27;100.00;-6042.03;6277328;22;20411;-72
2021/09/02 07:10:34;;;;;;;1.23;1.13;;;;;;;15.39;100.00;-4799.84;6276576;22;20940;-71
2021/09/02 07:13:01;;;;;;;0.70;0.60;;;;;;;15.56;100.00;-3368.81;6276745;22;20694;-72
2021/09/02 07:15:28;;;;;;;0.70;0.60;;;;;;;15.76;100.00;-2007.38;6248568;22;20383;-72
2021/09/02 07:17:55;;;;;;;0.80;0.70;;;;;;;15.91;100.00;-710.91;6247712;22;20464;-71
2021/09/02 07:20:23;;;;;;;0.70;0.60;;;;;;;16.20;100.00;933.78;6275199;22;20460;-70
2021/09/02 07:22:53;;;;;;;0.70;0.70;;;;;;;16.48;100.00;2489.06;6276301;22;20403;-71
2021/09/02 07:25:23;;;;;;;0.70;0.70;;;;;;;16.71;100.00;3548.84;6276805;22;20701;-71
2021/09/02 07:27:50;;;;;;;0.70;0.70;;;;;;;17.21;100.00;5409.53;6249605;22;20508;-71
2021/09/02 07:30:20;;;;;;;0.70;0.70;;;;;;;17.20;100.00;5838.16;6276509;22;20696;-71
2021/09/02 07:32:47;;;;;;;0.70;0.70;;;;;;;17.16;100.00;6222.84;6249790;22;20374;-71
2021/09/02 07:35:14;;;;;;;0.80;0.80;;;;;;;17.02;100.00;6161.84;6275557;22;20390;-71
2021/09/02 07:37:41;;;;;;;0.70;0.60;;;;;;;17.14;100.00;6541.50;6249202;22;20429;-72
2021/09/02 07:40:11;;;;;;;0.80;0.80;;;;;;;17.23;100.00;6160.22;6276608;22;20493;-71
2021/09/02 07:42:42;;;;;;;0.70;0.70;;;;;;;17.66;100.00;4686.28;6276014;22;20371;-72
2021/09/02 07:45:10;;;;;;;0.70;0.60;;;;;;;17.84;100.00;-424.56;6275634;22;20415;-71
2021/09/02 07:47:38;;;;;;;0.80;0.70;;;;;;;18.04;100.00;-10083.03;6249378;22;20391;-71
2021/09/02 07:50:09;;;;;;;0.90;0.70;;;;;;;17.83;100.00;-20763.38;6276251;22;20402;-71
2021/09/02 07:52:38;;;;;;;0.70;0.60;;;;;;;17.86;100.00;-21166.28;6276155;22;20414;-72
2021/09/02 07:55:06;;;;;;;0.70;0.63;;;;;;;18.28;100.00;-21177.66;6248290;22;20580;-71
2021/09/02 07:57:35;;;;;;;0.70;0.67;;;;;;;18.35;100.00;-21179.56;6248642;22;20418;-72
2021/09/02 08:00:03;;;;;;;0.80;0.70;;;;;;;18.15;100.00;-21174.09;6276070;22;20398;-72
2021/09/02 08:02:38;;;;;;;0.70;0.60;;;;;;;18.48;100.00;-21182.97;6275884;22;20900;-71
2021/09/02 08:05:06;;;;;;;0.70;0.70;;;;;;;18.54;100.00;-21184.50;6250026;22;20361;-71
2021/09/02 08:07:42;;;;;;;0.70;0.60;;;;;;;18.38;100.00;-21180.13;6276224;22;20954;-71
2021/09/02 08:10:10;;;;;;;0.70;0.60;;;;;;;18.89;100.00;-21193.81;6275440;22;20399;-71
2021/09/02 08:12:39;;;;;;;0.70;0.60;;;;;;;18.78;100.00;-21191.06;6248753;22;20405;-71
2021/09/02 08:15:07;;;;;;;0.70;0.60;;;;;;;18.58;100.00;-21185.59;6275418;22;20377;-71
2021/09/02 08:17:34;;;;;;;0.70;0.60;;;;;;;18.82;100.00;-21192.03;6277836;22;20901;-72
2021/09/02 08:20:01;;;;;;;1.73;1.63;;;;;;;19.08;100.00;-21199.00;6278319;22;20468;-72
2021/09/02 08:22:28;;;;;;;0.73;0.70;;;;;;;18.96;100.00;-21195.72;6250838;22;20902;-72
2021/09/02 08:24:55;;;;;;;0.70;0.60;;;;;;;19.12;100.00;-21200.09;6278050;22;20729;-72
2021/09/02 08:27:22;;;;;;;0.80;0.80;;;;;;;19.23;100.00;-21203.09;6277276;22;20421;-71
2021/09/02 08:29:51;;;;;;;0.70;0.70;;;;;;;19.20;100.00;-21202.28;6250724;22;20863;-72
2021/09/02 08:32:18;;;;;;;1.10;1.00;;;;;;;19.40;100.00;-21207.47;6277564;22;20387;-71
2021/09/02 08:34:45;;;;;;;0.80;0.60;;;;;;;20.00;100.00;-21223.63;6250842;22;20490;-72
2021/09/02 08:37:16;;;;;;;0.70;0.60;;;;;;;20.33;100.00;-21232.34;6252191;22;20368;-71
2021/09/02 08:39:43;;;;;;;0.70;0.60;;;;;;;20.77;100.00;-21244.09;6250687;22;20505;-69
2021/09/02 08:42:13;;;;;;;0.70;0.57;;;;;;;21.36;100.00;-21259.94;6278056;22;20739;-73
2021/09/02 08:44:40;;;;;;;0.90;0.90;;;;;;;20.96;100.00;-21249.44;6277659;22;20441;-69
2021/09/02 08:47:10;;;;;;;0.70;0.60;;;;;;;21.58;100.00;-21265.94;6251237;22;20478;-69
2021/09/02 08:49:38;;;;;;;1.33;1.23;;;;;;;22.42;100.00;-21288.28;6277832;22;20447;-69
2021/09/02 08:52:06;;;;;;;0.70;0.50;;;;;;;22.59;100.00;-21292.91;6250734;22;20426;-70
2021/09/02 08:54:33;;;;;;;1.23;0.63;;;;;;;22.88;100.00;-21300.66;6278095;22;20370;-69
2021/09/02 08:57:00;;;;;;;1.20;1.10;;;;;;;23.11;100.00;-21306.78;6277592;22;20398;-69
2021/09/02 08:59:27;;;;;;;0.90;0.77;;;;;;;23.37;100.00;-21313.72;6250132;22;20800;-70
2021/09/02 09:01:55;;;;;;;1.10;1.00;;;;;;;23.96;100.00;-21329.34;6277447;22;20462;-70
2021/09/02 09:04:33;;;;;;;1.27;1.00;;;;;;;24.44;100.00;-21342.13;6251044;22;20383;-69
2021/09/02 09:07:00;;;;;;;1.50;1.23;;;;;;;24.50;100.00;-21343.75;6277579;22;20393;-69
2021/09/02 09:09:27;;;;;;;2.17;2.00;;;;;;;24.43;100.00;-21341.84;6250568;22;20886;-70
2021/09/02 09:12:00;;;;;;;0.80;0.70;;;;;;;25.51;100.00;-21370.59;6277645;22;20393;-70
2021/09/02 09:14:28;;;;;;;1.10;0.73;;;;;;;25.19;100.00;-21361.94;6275472;22;20392;-70
2021/09/02 09:16:57;;;;;;;0.70;0.60;;;;;;;25.39;100.00;-21367.22;6249945;22;20418;-69
2021/09/02 09:19:53;;;;;;;0.80;0.70;;;;;;;25.38;100.00;-21366.94;6250819;22;20937;-70
2021/09/02 09:22:21;;;;;;;1.17;0.77;;;;;;;25.16;100.00;-21361.25;6276493;22;20462;-70
2021/09/02 09:24:50;;;;;;;0.80;0.63;;;;;;;25.18;100.00;-21361.66;6277039;22;20789;-70
2021/09/02 09:27:19;;;;;;;1.00;0.77;;;;;;;25.63;100.00;-21373.72;6249669;22;20406;-70
2021/09/02 09:30:06;;;;;;;0.70;0.50;;;;;;;25.54;100.00;-21371.28;6250501;22;20474;-70
2021/09/02 09:32:38;;;;;;;0.90;0.50;;;;;;;26.00;100.00;-21383.50;6277277;22;20371;-70
2021/09/02 09:35:08;;;;;;;0.70;0.60;;;;;;;26.41;100.00;-21394.31;6249718;22;20782;-70
2021/09/02 09:37:41;;;;;;;1.57;1.20;;;;;;;26.32;100.00;-21391.88;6276953;22;20403;-70
2021/09/02 09:40:14;;;;;;;1.17;1.07;;;;;;;26.10;100.00;-21386.06;6249540;22;20505;-69
2021/09/02 09:42:57;;;;;;;1.17;0.70;;;;;;;26.44;100.00;-21395.25;6276792;22;20378;-70
2021/09/02 09:45:36;;;;;;;1.50;1.23;;;;;;;26.33;100.00;-21392.16;6249337;22;20406;-69
2021/09/02 09:48:04;;;;;;;0.70;0.50;;;;;;;26.13;100.00;-21386.88;6276627;22;20411;-71
2021/09/02 09:50:33;;;;;;;1.93;1.53;;;;;;;26.52;100.00;-21397.16;6249889;22;20377;-70
2021/09/02 09:53:00;;;;;;;0.90;0.70;;;;;;;26.53;100.00;-21397.56;6276547;22;20430;-69
2021/09/02 09:55:27;;;;;;;1.00;0.70;;;;;;;26.61;100.00;-21399.72;6276648;22;20394;-70
2021/09/02 09:57:54;;;;;;;1.33;0.70;;;;;;;26.07;100.00;-21385.25;6276292;22;20855;-71
2021/09/02 10:00:21;;;;;;;0.90;0.80;;;;;;;26.47;100.00;-21395.94;6249263;22;20510;-71
2021/09/02 10:02:50;;;;;;;0.70;0.50;;;;;;;26.37;100.00;-21393.38;6249841;22;20432;-70
2021/09/02 10:05:18;;;;;;;0.80;0.80;;;;;;;26.67;100.00;-21401.22;6276575;22;20777;-70
2021/09/02 10:07:47;;;;;;;1.50;1.13;;;;;;;27.40;100.00;-21420.69;6249871;22;20437;-70
2021/09/02 10:10:15;;;;;;;1.30;0.90;;;;;;;27.77;100.00;-21430.41;6276305;22;20816;-71
2021/09/02 10:12:44;;;;;;;1.57;1.00;;;;;;;27.11;100.00;-21412.84;6276246;22;20439;-69
2021/09/02 10:15:13;;;;;;;0.80;0.60;;;;;;;26.84;100.00;-21405.81;6276191;22;20417;-69
2021/09/02 10:17:42;;;;;;;1.43;1.10;;;;;;;27.31;100.00;-21418.13;6249459;22;20737;-70
2021/09/02 10:20:15;;;;;;;0.90;0.60;;;;;;;26.35;100.00;-21392.69;6276941;22;20914;-70
2021/09/02 10:22:42;;;;;;;0.80;0.60;;;;;;;26.84;100.00;-21405.81;6276241;22;20421;-70
2021/09/02 10:25:37;;;;;;;1.30;1.20;;;;;;;27.36;100.00;-21419.63;6249901;22;20373;-69
2021/09/02 10:28:08;;;;;;;0.90;0.70;;;;;;;27.82;100.00;-21431.63;6258510;22;20406;-70
2021/09/02 10:30:41;;;;;;;0.93;0.83;;;;;;;27.16;100.00;-21414.19;6248792;22;20406;-69
2021/09/02 10:33:35;;;;;;;0.80;0.60;;;;;;;27.27;100.00;-21417.19;6275892;22;20374;-71
2021/09/02 10:36:25;;;;;;;0.90;0.60;;;;;;;26.74;100.00;-21403.13;6250335;22;20371;-71
2021/09/02 10:38:57;;;;;;;2.10;0.83;;;;;;;26.73;100.00;-21402.84;6249536;22;20454;-70
2021/09/02 10:41:47;;;;;;;1.77;0.93;;;;;;;26.65;100.00;-21400.69;6276322;22;20394;-71
2021/09/02 10:44:17;;;;;;;0.70;0.50;;;;;;;26.88;100.00;-21406.91;6276498;22;20363;-70
2021/09/02 10:46:46;;;;;;;1.43;0.70;;;;;;;27.66;100.00;-21427.44;6277051;22;20461;-70
2021/09/02 10:49:24;;;;;;;2.20;1.03;;;;;;;27.59;100.00;-21425.56;6275375;22;20383;-70
2021/09/02 10:51:53;;;;;;;0.80;0.60;;;;;;;27.57;100.00;-21425.16;6249163;22;20403;-71
2021/09/02 10:54:25;;;;;;;0.80;0.60;;;;;;;27.14;100.00;-21413.66;6276553;22;20957;-70
2021/09/02 10:57:05;;;;;;;1.50;1.37;;;;;;;27.03;100.00;-21410.69;6249547;22;20472;-70
2021/09/02 10:59:41;;;;;;;1.53;1.43;;;;;;;27.11;100.00;-21412.84;6275742;22;20737;-70
2021/09/02 11:02:10;;;;;;;1.20;0.77;;;;;;;27.50;100.00;-21423.13;6276770;22;20417;-70
2021/09/02 11:04:38;;;;;;;0.83;0.80;;;;;;;27.01;100.00;-21410.16;6276504;22;20387;-71
2021/09/02 11:07:06;;;;;;;0.70;0.60;;;;;;;27.51;100.00;-21423.41;6276141;22;20396;-71
2021/09/02 11:09:34;;;;;;;0.83;0.80;;;;;;;28.54;100.00;-21450.66;6222176;22;20773;-71
2021/09/02 11:12:08;;;;;;;0.80;0.60;;;;;;;27.32;100.00;-21418.38;6275728;22;20402;-70
2021/09/02 11:14:39;;;;;;;0.80;0.60;;;;;;;27.56;100.00;-21424.75;6275883;22;20375;-71
2021/09/02 11:17:07;;;;;;;1.43;0.70;;;;;;;27.68;100.00;-21427.97;6276830;22;20367;-71
2021/09/02 11:19:36;;;;;;;0.70;0.50;;;;;;;27.98;100.00;-21435.81;6276632;22;20418;-72
2021/09/02 11:22:09;;;;;;;0.90;0.60;;;;;;;27.86;100.00;-21432.84;6224258;22;20733;-71
2021/09/02 11:24:41;;;;;;;0.80;0.60;;;;;;;27.77;100.00;-21430.41;6249450;22;20808;-71
2021/09/02 11:27:11;;;;;;;0.80;0.63;;;;;;;27.75;100.00;-21429.88;6248916;22;20863;-71